createdAt,value
2018-09-22T00:01:04.808Z,97155.88
2018-09-22T00:03:31.966Z,97151.67
2018-09-22T00:05:59.154Z,97165.92
2018-09-22T00:08:26.276Z,97165.50
2018-09-22T00:10:53.471Z,97170.03
2018-09-22T00:13:20.637Z,97175.75
2018-09-22T00:15:47.838Z,97183.52
2018-09-22T00:18:15.072Z,97183.47
2018-09-22T00:20:43.067Z,97189.22
2018-09-22T00:23:10.248Z,97198.97
2018-09-22T00:25:37.463Z,97214.11
2018-09-22T00:28:04.745Z,97206.56
2018-09-22T00:30:31.945Z,97205.62
2018-09-22T00:32:59.392Z,97220.05
2018-09-22T00:35:26.616Z,97219.16
2018-09-22T00:37:53.777Z,97220.63
2018-09-22T00:40:20.920Z,97230.26
2018-09-22T00:42:48.105Z,97218.61
2018-09-22T00:45:15.284Z,97216.50
2018-09-22T00:47:42.455Z,97218.83
2018-09-22T00:50:09.649Z,97217.20
2018-09-22T00:52:36.788Z,97220.08
2018-09-22T00:55:04.536Z,97227.97
2018-09-22T00:57:31.700Z,97224.83
2018-09-22T00:59:58.860Z,97230.14
2018-09-22T01:02:26.076Z,97230.23
2018-09-22T01:04:53.229Z,97226.80
2018-09-22T01:07:20.385Z,97232.51
2018-09-22T01:09:47.592Z,97239.91
2018-09-22T01:12:14.773Z,97240.63
2018-09-22T01:14:41.959Z,97246.31
2018-09-22T01:17:09.177Z,97243.38
2018-09-22T01:19:36.396Z,97238.76
2018-09-22T01:22:03.585Z,97241.03
2018-09-22T01:24:30.756Z,97244.23
2018-09-22T01:26:57.924Z,97245.46
2018-09-22T01:29:25.118Z,97250.93
2018-09-22T01:31:52.298Z,97255.07
2018-09-22T01:34:19.484Z,97259.41
2018-09-22T01:36:46.715Z,97262.69
2018-09-22T01:39:13.936Z,97262.64
2018-09-22T01:41:41.589Z,97268.48
2018-09-22T01:44:08.776Z,97273.09
2018-09-22T01:46:35.960Z,97265.22
2018-09-22T01:49:03.084Z,97276.12
2018-09-22T01:51:30.644Z,97290.13
2018-09-22T01:53:57.855Z,97286.77
2018-09-22T01:56:25.065Z,97283.42
2018-09-22T01:58:52.177Z,97290.25
2018-09-22T02:01:19.309Z,97287.36
2018-09-22T02:03:46.445Z,97293.20
2018-09-22T02:06:13.629Z,97288.37
2018-09-22T02:08:40.776Z,97287.59
2018-09-22T02:11:07.972Z,97288.42
2018-09-22T02:13:35.210Z,97291.83
2018-09-22T02:16:02.396Z,97291.41
2018-09-22T02:18:29.545Z,97294.44
2018-09-22T02:20:56.720Z,97290.77
2018-09-22T02:23:23.856Z,97297.98
2018-09-22T02:25:51.020Z,97308.69
2018-09-22T02:28:18.214Z,97304.94
2018-09-22T02:30:45.399Z,97307.70
2018-09-22T02:33:12.653Z,97304.72
2018-09-22T02:35:39.863Z,97314.83
2018-09-22T02:38:07.040Z,97307.67
2018-09-22T02:40:34.217Z,97310.56
2018-09-22T02:43:01.405Z,97310.73
2018-09-22T02:45:28.548Z,97316.58
2018-09-22T02:47:55.713Z,97311.11
2018-09-22T02:50:22.868Z,97313.52
2018-09-22T02:52:50.146Z,97317.80
2018-09-22T02:55:17.329Z,97327.06
2018-09-22T02:57:44.467Z,97332.93
2018-09-22T03:00:11.651Z,97322.48
2018-09-22T03:02:38.800Z,97333.30
2018-09-22T03:05:05.994Z,97340.77
2018-09-22T03:07:33.204Z,97342.46
2018-09-22T03:10:00.384Z,97339.75
2018-09-22T03:12:27.567Z,97343.58
2018-09-22T03:14:54.756Z,97351.58
2018-09-22T03:17:21.950Z,97358.09
2018-09-22T03:19:49.116Z,97354.52
2018-09-22T03:22:16.224Z,97354.66
2018-09-22T03:24:43.475Z,97360.00
2018-09-22T03:27:10.683Z,97356.87
2018-09-22T03:29:37.861Z,97357.12
2018-09-22T03:32:05.119Z,97352.95
2018-09-22T03:34:32.392Z,97352.17
2018-09-22T03:36:59.528Z,97348.68
2018-09-22T03:39:26.729Z,97341.59
2018-09-22T03:41:53.841Z,97338.47
2018-09-22T03:44:20.960Z,97345.51
2018-09-22T03:46:48.131Z,97344.19
2018-09-22T03:49:15.301Z,97345.69
2018-09-22T03:51:42.493Z,97354.52
2018-09-22T03:54:09.657Z,97351.08
2018-09-22T03:56:36.804Z,97351.21
2018-09-22T03:59:03.995Z,97350.37
2018-09-22T04:01:31.172Z,97335.22
2018-09-22T04:03:58.316Z,97338.11
2018-09-22T04:06:25.495Z,97332.30
2018-09-22T04:08:52.611Z,97333.12
2018-09-22T04:11:19.732Z,97333.91
2018-09-22T04:13:46.920Z,97346.84
2018-09-22T04:16:14.034Z,97340.48
2018-09-22T04:18:41.214Z,97352.84
2018-09-22T04:21:08.460Z,97353.97
2018-09-22T04:23:35.647Z,97350.52
2018-09-22T04:26:02.861Z,97350.00
2018-09-22T04:28:30.000Z,97356.28
2018-09-22T04:30:57.166Z,97361.56
2018-09-22T04:33:31.235Z,97356.75
2018-09-22T04:35:58.324Z,97349.47
2018-09-22T04:38:25.474Z,97358.48
2018-09-22T04:40:52.630Z,97371.11
2018-09-22T04:43:19.786Z,97364.55
2018-09-22T04:45:46.956Z,97358.97
2018-09-22T04:48:14.103Z,97348.22
2018-09-22T04:50:41.248Z,97357.41
2018-09-22T04:53:08.417Z,97364.63
2018-09-22T04:55:35.576Z,97358.19
2018-09-22T04:58:02.766Z,97355.55
2018-09-22T05:00:29.904Z,97380.27
2018-09-22T05:02:57.064Z,97382.22
2018-09-22T05:05:24.212Z,97374.80
2018-09-22T05:07:51.363Z,97390.42
2018-09-22T05:10:18.568Z,97398.84
2018-09-22T05:12:45.736Z,97403.77
2018-09-22T05:15:12.943Z,97416.44
2018-09-22T05:17:40.169Z,97413.73
2018-09-22T05:20:07.333Z,97411.94
2018-09-22T05:22:34.446Z,97402.44
2018-09-22T05:25:01.746Z,97415.38
2018-09-22T05:27:28.929Z,97407.98
2018-09-22T05:29:56.107Z,97414.83
2018-09-22T05:32:23.273Z,97421.02
2018-09-22T05:34:50.476Z,97424.17
2018-09-22T05:37:17.634Z,97434.98
2018-09-22T05:39:44.807Z,97425.73
2018-09-22T05:42:12.044Z,97431.84
2018-09-22T05:44:39.236Z,97431.84
2018-09-22T05:47:06.440Z,97424.34
2018-09-22T05:49:33.552Z,97417.59
2018-09-22T05:52:00.692Z,97433.95
2018-09-22T05:54:27.973Z,97444.30
2018-09-22T05:56:55.147Z,97445.21
2018-09-22T05:59:22.269Z,97444.23
2018-09-22T06:01:49.467Z,97445.02
2018-09-22T06:04:16.631Z,97453.73
2018-09-22T06:06:43.755Z,97462.77
2018-09-22T06:09:10.906Z,97462.11
2018-09-22T06:11:38.115Z,97446.88
2018-09-22T06:14:05.357Z,97449.97
2018-09-22T06:16:32.588Z,97439.92
2018-09-22T06:18:59.763Z,97428.42
2018-09-22T06:21:26.952Z,97440.94
2018-09-22T06:23:54.195Z,97454.52
2018-09-22T06:26:21.348Z,97463.00
2018-09-22T06:28:48.597Z,97462.94
2018-09-22T06:31:15.751Z,97460.80
2018-09-22T06:33:42.924Z,97471.25
2018-09-22T06:36:10.091Z,97476.68
2018-09-22T06:38:37.201Z,97479.09
2018-09-22T06:41:04.409Z,97486.29
2018-09-22T06:43:31.599Z,97490.87
2018-09-22T06:48:32.893Z,97484.01
2018-09-22T06:51:00.156Z,97491.88
2018-09-22T06:53:27.416Z,97497.18
2018-09-22T06:55:54.611Z,97493.52
2018-09-22T06:58:21.796Z,97497.12
2018-09-22T07:00:48.970Z,97491.10
2018-09-22T07:03:16.170Z,97489.48
2018-09-22T07:05:43.324Z,97493.83
2018-09-22T07:08:10.472Z,97493.75
2018-09-22T07:10:37.628Z,97489.17
2018-09-22T07:13:04.820Z,97495.55
2018-09-22T07:15:31.989Z,97498.13
2018-09-22T07:17:59.105Z,97492.84
2018-09-22T07:20:26.285Z,97490.86
2018-09-22T07:22:59.208Z,97483.32
2018-09-22T07:25:26.392Z,97494.25
2018-09-22T07:27:53.541Z,97492.97
2018-09-22T07:30:20.664Z,97486.99
2018-09-22T07:32:47.865Z,97494.76
2018-09-22T07:35:15.031Z,97493.92
2018-09-22T07:37:42.207Z,97489.50
2018-09-22T07:40:09.356Z,97490.81
2018-09-22T07:42:36.590Z,97493.47
2018-09-22T07:45:03.896Z,97504.14
2018-09-22T07:47:31.059Z,97506.34
2018-09-22T07:49:58.211Z,97515.78
2018-09-22T07:52:25.356Z,97515.19
2018-09-22T07:54:52.527Z,97519.31
2018-09-22T07:57:19.741Z,97515.81
2018-09-22T07:59:46.910Z,97516.98
2018-09-22T08:02:14.044Z,97518.48
2018-09-22T08:04:41.212Z,97516.97
2018-09-22T08:07:13.813Z,97518.38
2018-09-22T08:09:40.985Z,97523.64
2018-09-22T08:12:08.234Z,97519.82
2018-09-22T08:14:35.433Z,97520.09
2018-09-22T08:17:02.598Z,97520.52
2018-09-22T08:19:29.796Z,97510.08
2018-09-22T08:21:57.000Z,97516.05
2018-09-22T08:24:24.164Z,97502.89
2018-09-22T08:26:51.332Z,97498.61
2018-09-22T08:29:18.641Z,97498.14
2018-09-22T08:31:45.985Z,97494.41
2018-09-22T08:34:13.264Z,97500.09
2018-09-22T08:36:40.692Z,97497.48
2018-09-22T08:39:09.310Z,97487.65
2018-09-22T08:41:36.517Z,97491.16
2018-09-22T08:44:03.681Z,97497.33
2018-09-22T08:46:30.940Z,97498.18
2018-09-22T08:48:58.151Z,97507.19
2018-09-22T08:51:25.333Z,97513.38
2018-09-22T08:53:52.565Z,97510.20
2018-09-22T08:56:19.794Z,97515.11
2018-09-22T08:58:47.053Z,97514.34
2018-09-22T09:01:14.314Z,97518.33
2018-09-22T09:03:41.967Z,97511.94
2018-09-22T09:06:09.165Z,97521.83
2018-09-22T09:08:36.353Z,97530.25
2018-09-22T09:11:03.577Z,97517.70
2018-09-22T09:13:30.848Z,97529.28
2018-09-22T09:15:58.003Z,97530.52
2018-09-22T09:18:25.185Z,97517.94
2018-09-22T09:20:52.419Z,97520.08
2018-09-22T09:23:19.608Z,97534.86
2018-09-22T09:25:46.750Z,97529.86
2018-09-22T09:28:13.995Z,97528.41
2018-09-22T09:30:41.213Z,97520.54
2018-09-22T09:33:08.410Z,97531.23
2018-09-22T09:35:35.724Z,97514.91
2018-09-22T09:38:02.925Z,97520.91
2018-09-22T09:40:30.063Z,97510.05
2018-09-22T09:42:57.264Z,97514.13
2018-09-22T09:45:24.463Z,97514.31
2018-09-22T09:47:51.671Z,97513.16
2018-09-22T09:50:18.865Z,97511.66
2018-09-22T09:52:46.123Z,97504.05
2018-09-22T09:55:13.414Z,97499.68
2018-09-22T09:57:40.674Z,97498.59
2018-09-22T10:00:08.014Z,97490.71
2018-09-22T10:02:35.212Z,97488.72
2018-09-22T10:05:02.790Z,97494.55
2018-09-22T10:07:30.016Z,97488.17
2018-09-22T10:09:57.230Z,97492.39
2018-09-22T10:12:24.453Z,97498.30
2018-09-22T10:14:51.693Z,97493.94
2018-09-22T10:17:19.034Z,97493.23
2018-09-22T10:19:46.259Z,97488.34
2018-09-22T10:22:13.552Z,97486.33
2018-09-22T10:24:40.831Z,97495.67
2018-09-22T10:27:08.097Z,97495.08
2018-09-22T10:29:35.408Z,97495.05
2018-09-22T10:32:02.643Z,97500.37
2018-09-22T10:34:29.851Z,97489.32
2018-09-22T10:36:57.012Z,97474.92
2018-09-22T10:39:24.184Z,97464.69
2018-09-22T10:41:51.335Z,97469.18
2018-09-22T10:44:18.541Z,97477.13
2018-09-22T10:46:45.756Z,97473.90
2018-09-22T10:49:13.081Z,97466.22
2018-09-22T10:51:40.237Z,97469.05
2018-09-22T10:54:07.384Z,97469.53
2018-09-22T10:56:34.570Z,97464.51
2018-09-22T10:59:01.739Z,97463.98
2018-09-22T11:01:28.912Z,97474.20
2018-09-22T11:03:56.148Z,97473.54
2018-09-22T11:06:23.372Z,97468.30
2018-09-22T11:08:50.684Z,97474.62
2018-09-22T11:11:17.922Z,97467.27
2018-09-22T11:13:45.195Z,97451.46
2018-09-22T11:16:12.470Z,97450.18
2018-09-22T11:18:39.720Z,97458.09
2018-09-22T11:21:06.928Z,97451.89
2018-09-22T11:23:34.137Z,97454.45
2018-09-22T11:26:08.174Z,97438.48
2018-09-22T11:28:35.400Z,97439.45
2018-09-22T11:31:02.587Z,97425.53
2018-09-22T11:33:29.865Z,97431.02
2018-09-22T11:35:57.097Z,97433.75
2018-09-22T11:38:24.435Z,97427.36
2018-09-22T11:40:51.572Z,97426.82
2018-09-22T11:43:18.779Z,97435.00
2018-09-22T11:45:45.968Z,97431.64
2018-09-22T11:48:13.233Z,97431.45
2018-09-22T11:50:40.499Z,97434.08
2018-09-22T11:53:07.774Z,97429.20
2018-09-22T11:55:35.100Z,97418.91
2018-09-22T11:58:02.449Z,97424.05
2018-09-22T12:00:29.732Z,97418.02
2018-09-22T12:02:57.005Z,97411.55
2018-09-22T12:05:24.295Z,97389.28
2018-09-22T12:07:51.540Z,97383.84
2018-09-22T12:10:18.780Z,97371.59
2018-09-22T12:12:46.035Z,97375.07
2018-09-22T12:15:13.292Z,97377.85
2018-09-22T12:17:40.544Z,97390.18
2018-09-22T12:20:07.882Z,97395.44
2018-09-22T12:22:35.230Z,97395.78
2018-09-22T12:25:02.689Z,97403.63
2018-09-22T12:27:29.964Z,97412.13
2018-09-22T12:29:57.220Z,97415.33
2018-09-22T12:32:25.460Z,97396.90
2018-09-22T12:34:52.696Z,97404.35
2018-09-22T12:37:19.918Z,97390.24
2018-09-22T12:39:47.143Z,97381.59
2018-09-22T12:42:14.344Z,97384.23
2018-09-22T12:44:41.538Z,97395.80
2018-09-22T12:47:08.702Z,97391.30
2018-09-22T12:49:35.948Z,97386.28
2018-09-22T12:52:03.170Z,97387.50
2018-09-22T12:54:30.398Z,97383.34
2018-09-22T12:56:57.551Z,97373.03
2018-09-22T12:59:25.012Z,97362.73
2018-09-22T13:01:52.213Z,97363.27
2018-09-22T13:04:19.432Z,97355.81
2018-09-22T13:06:46.643Z,97356.13
2018-09-22T13:09:13.892Z,97358.22
2018-09-22T13:11:41.129Z,97356.80
2018-09-22T13:14:08.420Z,97362.61
2018-09-22T13:16:35.656Z,97366.09
2018-09-22T13:19:02.835Z,97364.52
2018-09-22T13:21:30.123Z,97360.21
2018-09-22T13:23:57.372Z,97350.54
2018-09-22T13:26:24.569Z,97340.21
2018-09-22T13:28:51.817Z,97336.20
2018-09-22T13:31:19.005Z,97327.53
2018-09-22T13:33:46.212Z,97319.17
2018-09-22T13:36:13.368Z,97319.88
2018-09-22T13:38:40.688Z,97315.23
2018-09-22T13:41:07.822Z,97301.38
2018-09-22T13:43:34.991Z,97301.75
2018-09-22T13:46:02.177Z,97304.33
2018-09-22T13:48:29.436Z,97302.65
2018-09-22T13:50:56.699Z,97299.08
2018-09-22T13:53:23.841Z,97301.58
2018-09-22T13:55:51.045Z,97296.34
2018-09-22T13:58:18.277Z,97299.18
2018-09-22T14:00:45.422Z,97292.71
2018-09-22T14:03:12.621Z,97298.49
2018-09-22T14:05:39.922Z,97303.91
2018-09-22T14:08:14.001Z,97297.19
2018-09-22T14:10:41.236Z,97290.00
2018-09-22T14:13:08.496Z,97303.17
2018-09-22T14:15:35.681Z,97312.00
2018-09-22T14:18:02.898Z,97315.60
2018-09-22T14:20:30.151Z,97320.94
2018-09-22T14:22:57.336Z,97306.63
2018-09-22T14:25:24.517Z,97307.19
2018-09-22T14:27:51.972Z,97305.95
2018-09-22T14:30:19.180Z,97312.38
2018-09-22T14:32:46.432Z,97298.69
2018-09-22T14:35:13.680Z,97302.82
2018-09-22T14:37:40.931Z,97304.16
2018-09-22T14:40:08.279Z,97294.34
2018-09-22T14:42:35.477Z,97292.89
2018-09-22T14:45:02.681Z,97297.52
2018-09-22T14:47:29.884Z,97306.52
2018-09-22T14:49:57.087Z,97292.30
2018-09-22T14:52:24.248Z,97302.53
2018-09-22T14:54:51.455Z,97301.66
2018-09-22T14:57:18.647Z,97296.00
2018-09-22T14:59:45.896Z,97272.23
2018-09-22T15:02:13.130Z,97268.81
2018-09-22T15:04:40.381Z,97279.70
2018-09-22T15:07:07.577Z,97276.23
2018-09-22T15:09:34.741Z,97259.44
2018-09-22T15:12:01.935Z,97257.45
2018-09-22T15:14:29.156Z,97261.02
2018-09-22T15:16:56.728Z,97259.70
2018-09-22T15:19:23.953Z,97249.46
2018-09-22T15:21:51.177Z,97242.00
2018-09-22T15:24:18.377Z,97244.02
2018-09-22T15:26:45.638Z,97238.47
2018-09-22T15:29:12.885Z,97235.33
2018-09-22T15:31:40.089Z,97240.58
2018-09-22T15:34:07.280Z,97241.13
2018-09-22T15:36:34.464Z,97249.56
2018-09-22T15:39:01.827Z,97246.67
2018-09-22T15:41:29.011Z,97260.22
2018-09-22T15:43:56.203Z,97257.80
2018-09-22T15:46:23.404Z,97244.34
2018-09-22T15:48:50.583Z,97251.25
2018-09-22T15:51:17.931Z,97238.02
2018-09-22T15:53:45.153Z,97245.92
2018-09-22T15:56:12.389Z,97244.89
2018-09-22T15:58:39.686Z,97254.01
2018-09-22T16:01:06.895Z,97259.69
2018-09-22T16:03:34.149Z,97258.68
2018-09-22T16:06:01.405Z,97256.23
2018-09-22T16:08:28.686Z,97253.78
2018-09-22T16:10:55.830Z,97258.02
2018-09-22T16:13:23.145Z,97248.48
2018-09-22T16:15:50.363Z,97245.67
2018-09-22T16:18:17.658Z,97242.23
2018-09-22T16:20:44.910Z,97229.30
2018-09-22T16:23:12.130Z,97224.09
2018-09-22T16:25:39.408Z,97235.80
2018-09-22T16:28:06.671Z,97245.36
2018-09-22T16:30:34.004Z,97242.02
2018-09-22T16:33:01.368Z,97237.92
2018-09-22T16:35:35.430Z,97221.38
2018-09-22T16:38:02.742Z,97192.34
2018-09-22T16:40:30.016Z,97194.26
2018-09-22T16:42:57.343Z,97188.80
2018-09-22T16:45:24.609Z,97191.69
2018-09-22T16:47:51.886Z,97178.14
2018-09-22T16:50:19.173Z,97183.69
2018-09-22T16:52:46.403Z,97194.25
2018-09-22T16:55:13.701Z,97198.61
2018-09-22T16:57:40.959Z,97207.97
2018-09-22T17:00:08.300Z,97212.69
2018-09-22T17:02:35.640Z,97202.59
2018-09-22T17:05:04.744Z,97201.02
2018-09-22T17:07:32.077Z,97196.47
2018-09-22T17:09:59.345Z,97197.13
2018-09-22T17:12:26.602Z,97193.48
2018-09-22T17:14:53.955Z,97193.50
2018-09-22T17:17:21.302Z,97200.41
2018-09-22T17:19:48.584Z,97199.08
2018-09-22T17:22:15.906Z,97203.97
2018-09-22T17:24:43.216Z,97200.48
2018-09-22T17:27:10.521Z,97191.11
2018-09-22T17:29:37.820Z,97188.79
2018-09-22T17:32:05.152Z,97187.02
2018-09-22T17:34:32.509Z,97185.00
2018-09-22T17:36:59.831Z,97183.34
2018-09-22T17:39:27.138Z,97181.16
2018-09-22T17:41:54.500Z,97196.61
2018-09-22T17:44:21.843Z,97200.70
2018-09-22T17:46:49.122Z,97193.02
2018-09-22T17:49:16.371Z,97184.46
2018-09-22T17:51:43.629Z,97197.65
2018-09-22T17:54:10.944Z,97200.09
2018-09-22T17:56:38.329Z,97217.44
2018-09-22T17:59:05.911Z,97226.17
2018-09-22T18:01:33.253Z,97222.09
2018-09-22T18:04:00.559Z,97222.03
2018-09-22T18:06:27.806Z,97224.69
2018-09-22T18:08:55.067Z,97231.12
2018-09-22T18:11:22.317Z,97231.78
2018-09-22T18:13:49.588Z,97233.28
2018-09-22T18:16:16.861Z,97234.76
2018-09-22T18:18:44.312Z,97239.57
2018-09-22T18:21:11.600Z,97248.17
2018-09-22T18:23:38.875Z,97247.14
2018-09-22T18:26:06.119Z,97242.37
2018-09-22T18:28:33.344Z,97237.84
2018-09-22T18:31:00.534Z,97244.51
2018-09-22T18:33:27.804Z,97244.06
2018-09-22T18:35:55.044Z,97251.20
2018-09-22T18:38:22.298Z,97247.99
2018-09-22T18:40:49.551Z,97251.66
2018-09-22T18:43:16.880Z,97256.61
2018-09-22T18:45:44.216Z,97251.14
2018-09-22T18:48:11.481Z,97252.22
2018-09-22T18:50:38.800Z,97253.57
2018-09-22T18:53:06.199Z,97247.39
2018-09-22T18:55:34.490Z,97231.23
2018-09-22T18:58:01.798Z,97238.08
2018-09-22T19:00:29.095Z,97237.05
2018-09-22T19:02:56.391Z,97240.81
2018-09-22T19:05:23.705Z,97229.64
2018-09-22T19:07:50.953Z,97240.75
2018-09-22T19:10:18.169Z,97239.83
2018-09-22T19:12:45.458Z,97244.31
2018-09-22T19:15:24.125Z,97257.81
2018-09-22T19:17:57.194Z,97252.93
2018-09-22T19:20:35.130Z,97262.02
2018-09-22T19:23:06.795Z,97260.72
2018-09-22T19:25:36.345Z,97253.63
2018-09-22T19:28:06.933Z,97242.34
2018-09-22T19:30:42.649Z,97230.41
2018-09-22T19:33:28.501Z,97226.69
2018-09-22T19:36:02.957Z,97223.78
2018-09-22T19:38:34.774Z,97220.80
2018-09-22T19:41:06.702Z,97215.25
2018-09-22T19:44:10.483Z,97226.55
2018-09-22T19:46:58.085Z,97226.46
2018-09-22T19:49:27.940Z,97227.42
2018-09-22T19:51:59.816Z,97217.78
2018-09-22T19:54:27.059Z,97219.98
2018-09-22T19:56:54.260Z,97207.20
2018-09-22T19:59:21.501Z,97226.00
2018-09-22T20:01:48.847Z,97232.16
2018-09-22T20:04:16.065Z,97247.00
2018-09-22T20:06:43.283Z,97245.32
2018-09-22T20:09:10.445Z,97251.06
2018-09-22T20:11:37.663Z,97236.07
2018-09-22T20:14:04.833Z,97236.42
2018-09-22T20:16:32.036Z,97236.22
2018-09-22T20:18:59.229Z,97235.84
2018-09-22T20:21:26.439Z,97230.62
2018-09-22T20:24:00.444Z,97234.84
2018-09-22T20:26:27.732Z,97236.16
2018-09-22T20:28:54.931Z,97257.84
2018-09-22T20:31:22.168Z,97273.58
2018-09-22T20:33:49.492Z,97278.30
2018-09-22T20:36:16.768Z,97267.98
2018-09-22T20:38:43.990Z,97263.23
2018-09-22T20:41:11.228Z,97267.38
2018-09-22T20:43:38.457Z,97272.91
2018-09-22T20:46:05.708Z,97272.45
2018-09-22T20:48:32.905Z,97250.15
2018-09-22T20:51:00.168Z,97233.45
2018-09-22T20:53:27.440Z,97213.75
2018-09-22T20:55:54.671Z,97211.70
2018-09-22T20:58:21.864Z,97217.86
2018-09-22T21:00:49.103Z,97240.92
2018-09-22T21:03:16.319Z,97235.63
2018-09-22T21:05:43.484Z,97244.03
2018-09-22T21:08:10.798Z,97239.83
2018-09-22T21:10:38.095Z,97220.66
2018-09-22T21:13:05.340Z,97214.86
2018-09-22T21:15:32.529Z,97215.64
2018-09-22T21:17:59.732Z,97212.30
2018-09-22T21:20:26.952Z,97213.80
2018-09-22T21:22:54.215Z,97208.81
2018-09-22T21:25:21.370Z,97208.50
2018-09-22T21:27:48.654Z,97211.37
2018-09-22T21:30:15.870Z,97210.14
2018-09-22T21:32:43.100Z,97203.61
2018-09-22T21:35:10.349Z,97197.34
2018-09-22T21:37:37.537Z,97199.42
2018-09-22T21:40:04.874Z,97201.98
2018-09-22T21:42:32.055Z,97196.72
2018-09-22T21:44:59.242Z,97193.80
2018-09-22T21:47:26.508Z,97204.15
2018-09-22T21:49:53.688Z,97203.92
2018-09-22T21:52:20.900Z,97195.48
2018-09-22T21:54:48.204Z,97191.67
2018-09-22T21:57:15.411Z,97192.54
2018-09-22T21:59:42.594Z,97189.75
2018-09-22T22:02:09.769Z,97196.69
2018-09-22T22:04:36.975Z,97205.28
2018-09-22T22:07:04.210Z,97206.70
2018-09-22T22:09:31.358Z,97208.58
2018-09-22T22:11:58.539Z,97210.28
2018-09-22T22:14:25.710Z,97209.58
2018-09-22T22:16:52.921Z,97223.53
2018-09-22T22:19:20.113Z,97233.01
2018-09-22T22:21:47.344Z,97221.21
2018-09-22T22:24:14.524Z,97214.13
2018-09-22T22:26:41.755Z,97216.63
2018-09-22T22:29:09.025Z,97223.99
2018-09-22T22:31:36.250Z,97218.30
2018-09-22T22:34:03.481Z,97210.34
2018-09-22T22:36:30.696Z,97208.41
2018-09-22T22:38:57.839Z,97207.56
2018-09-22T22:41:25.084Z,97214.90
2018-09-22T22:43:52.274Z,97211.10
2018-09-22T22:46:19.473Z,97216.02
2018-09-22T22:48:46.601Z,97217.63
2018-09-22T22:51:13.800Z,97223.23
2018-09-22T22:53:40.988Z,97217.64
2018-09-22T22:56:08.289Z,97220.23
2018-09-22T22:58:35.488Z,97225.31
2018-09-22T23:01:02.700Z,97212.66
2018-09-22T23:03:29.900Z,97208.52
2018-09-22T23:05:57.078Z,97207.03
2018-09-22T23:08:24.289Z,97207.78
2018-09-22T23:10:51.432Z,97197.98
2018-09-22T23:13:18.616Z,97205.08
2018-09-22T23:15:45.804Z,97208.91
2018-09-22T23:18:13.013Z,97208.38
2018-09-22T23:20:40.193Z,97205.85
2018-09-22T23:23:07.409Z,97199.22
2018-09-22T23:25:35.196Z,97192.59
2018-09-22T23:28:02.580Z,97192.68
2018-09-22T23:30:29.765Z,97192.27
2018-09-22T23:32:56.936Z,97195.47
2018-09-22T23:35:24.263Z,97193.28
2018-09-22T23:37:51.509Z,97197.92
2018-09-22T23:40:18.692Z,97195.80
2018-09-22T23:42:45.860Z,97194.68
2018-09-22T23:45:13.005Z,97193.36
2018-09-22T23:47:40.191Z,97196.06
2018-09-22T23:50:07.357Z,97207.81
2018-09-22T23:52:34.576Z,97204.43
2018-09-22T23:55:01.841Z,97198.44
2018-09-22T23:57:28.988Z,97191.42
2018-09-22T23:59:56.144Z,97186.53
